Flight Track Log - Related Links

Times and Time Zones

All times are in EDT time to prevent confusion due to time zone crossing. See the N588AC flight status page for this flight to view local times or setup timezone preferences in your user account.

Time Position Orientation Groundspeed Altitude Reporting Facility
EDT Latitude Longitude Course Direction KTS MPH feet Rate Location/Type
Tue 01:07:46 PM 33.9211 -78.7006 331° Northwest 222 255 6,100  Level Jacksonville Center
Tue 01:08:46 PM 33.9600 -78.7389 321° Northwest 206 237 8,700 2,600 Climbing Jacksonville Center
Tue 01:09:46 PM 34.0092 -78.7717 331° Northwest 199 229 11,300 2,500 Climbing Jacksonville Center
Tue 01:10:46 PM 34.0581 -78.8044 331° Northwest 199 229 13,700 2,350 Climbing Jacksonville Center
Tue 01:11:00 PM 34.1237 -78.9118 338° Northwest  Level FlightAware Approximate
Tue 01:11:46 PM 34.1072 -78.8422 328° Northwest 199 229 16,000  Level Jacksonville Center
Tue 01:12:00 PM 34.1911 -78.9496 331° Northwest  Level FlightAware Approximate
Tue 01:12:46 PM 34.1606 -78.8775 331° Northwest 204 235 17,900  Level Jacksonville Center
Tue 01:13:46 PM 34.2181 -78.9150 332° Northwest 221 254 19,800 2,000 Climbing Jacksonville Center
Tue 01:14:46 PM 34.2714 -78.9528 330° Northwest 226 260 21,900 1,550 Climbing Jacksonville Center
Tue 01:15:46 PM 34.3311 -78.9928 331° Northwest 231 266 22,900 493 Climbing Jacksonville Center
Tue 01:17:12 PM 34.4367 -79.0569 333° Northwest 267 307 23,100 571 Climbing Washington Center
Tue 01:18:13 PM 34.5164 -79.1131 330° Northwest 308 354 24,300 1,180 Climbing Washington Center
Tue 01:19:14 PM 34.5986 -79.1594 335° Northwest 313 360 25,500 836 Climbing Washington Center
Tue 01:20:15 PM 34.6828 -79.2036 337° Northwest 323 372 26,000 254 Climbing Washington Center
Tue 01:21:12 PM 34.7728 -79.2608 332° Northwest 338 389 26,000  Level Washington Center
Tue 01:22:13 PM 34.8631 -79.3131 335° Northwest 351 404 26,000  Level Washington Center
Tue 01:23:13 PM 34.9572 -79.3678 335° Northwest 364 419 26,000  Level Washington Center
Tue 01:24:14 PM 35.0492 -79.4256 333° Northwest 369 425 26,000  Level Washington Center
Tue 01:25:48 PM 35.2008 -79.5119 335° Northwest 367 422 26,000  Level Atlanta Center
Tue 01:26:48 PM 35.2947 -79.5678 334° Northwest 372 428 26,000  Level Atlanta Center
Tue 01:27:48 PM 35.3844 -79.6267 332° Northwest 372 428 26,000  Level Atlanta Center
Tue 01:28:48 PM 35.4783 -79.6853 333° Northwest 372 428 26,000  Level Atlanta Center
Tue 01:29:48 PM 35.5700 -79.7417 333° Northwest 372 428 26,000  Level Atlanta Center
Tue 01:30:48 PM 35.6425 -79.7892 332° Northwest 372 428 26,000  Level Atlanta Center
Tue 01:31:48 PM 35.7447 -79.8478 335° Northwest 367 422 26,000 -150 Level Atlanta Center
Tue 01:32:48 PM 35.8342 -79.9047 333° Northwest 367 422 25,700 -950 Descending Atlanta Center
Tue 01:33:48 PM 35.9386 -79.9686 334° Northwest 376 433 24,100 -1,300 Descending Atlanta Center
Tue 01:34:48 PM 36.0261 -80.0258 332° Northwest 371 427 23,100 -750 Descending Atlanta Center
Tue 01:35:48 PM 36.1156 -80.0831 333° Northwest 366 421 22,600 -950 Descending Atlanta Center
Tue 01:36:48 PM 36.2050 -80.1431 332° Northwest 361 415 21,200 -1,400 Descending Atlanta Center
Tue 01:37:48 PM 36.2814 -80.1883 334° Northwest 356 410 19,800 -1,650 Descending Atlanta Center
Tue 01:38:48 PM 36.3667 -80.2433 333° Northwest 351 404 17,900 -2,050 Descending Atlanta Center
Tue 01:39:48 PM 36.4539 -80.2961 334° Northwest 351 404 15,700 -1,850 Descending Atlanta Center
Tue 01:40:48 PM 36.5306 -80.3494 331° Northwest 340 391 14,200 -750 Descending Atlanta Center
Tue 01:41:48 PM 36.6133 -80.4025 333° Northwest 311 358 14,200  Level Atlanta Center
Tue 01:42:48 PM 36.6900 -80.4558 331° Northwest 311 358 14,200 -1,300 Level Atlanta Center
Tue 01:43:48 PM 36.7664 -80.5042 333° Northwest 311 358 11,600 1,400 Descending Atlanta Center
Tue 01:44:48 PM 36.8228 -80.5769 314° West 310 357 17,000 -1,700 Climbing Atlanta Center
Tue 01:45:48 PM 36.8703 -80.6397 313° West 285 328 8,200 -4,600 Descending Atlanta Center
Tue 01:46:48 PM 36.9222 -80.7103 313° West 285 328 7,800 -1,100 Descending Atlanta Center
Tue 01:47:48 PM 36.9700 -80.7758 312° West 275 316 6,000 -1,800 Descending Atlanta Center

Login

Don't have an account? Register now (free) for customized features, flight alerts, and more!